sensor_id;sensor_type;location;lat;lon;timestamp;P1;durP1;ratioP1;P2;durP2;ratioP2
38725;SDS011;24474;48.906;8.808;2023-12-20T00:01:22;1.65;;;1.08;;
38725;SDS011;24474;48.906;8.808;2023-12-20T00:03:48;1.90;;;1.20;;
38725;SDS011;24474;48.906;8.808;2023-12-20T00:06:14;2.40;;;1.30;;
38725;SDS011;24474;48.906;8.808;2023-12-20T00:08:39;3.15;;;1.30;;
38725;SDS011;24474;48.906;8.808;2023-12-20T00:11:05;3.45;;;1.35;;
38725;SDS011;24474;48.906;8.808;2023-12-20T00:13:31;1.60;;;1.00;;
38725;SDS011;24474;48.906;8.808;2023-12-20T00:15:56;4.43;;;1.35;;
38725;SDS011;24474;48.906;8.808;2023-12-20T00:18:22;4.40;;;1.33;;
38725;SDS011;24474;48.906;8.808;2023-12-20T00:20:48;1.38;;;1.00;;
38725;SDS011;24474;48.906;8.808;2023-12-20T00:23:13;2.45;;;1.17;;
38725;SDS011;24474;48.906;8.808;2023-12-20T00:25:39;2.38;;;1.10;;
38725;SDS011;24474;48.906;8.808;2023-12-20T00:28:05;1.90;;;1.10;;
38725;SDS011;24474;48.906;8.808;2023-12-20T00:30:31;1.35;;;1.00;;
38725;SDS011;24474;48.906;8.808;2023-12-20T00:32:57;2.35;;;1.20;;
38725;SDS011;24474;48.906;8.808;2023-12-20T00:35:22;1.55;;;1.00;;
38725;SDS011;24474;48.906;8.808;2023-12-20T00:37:48;3.67;;;0.90;;
38725;SDS011;24474;48.906;8.808;2023-12-20T00:40:14;4.38;;;1.50;;
38725;SDS011;24474;48.906;8.808;2023-12-20T00:42:40;1.10;;;1.00;;
38725;SDS011;24474;48.906;8.808;2023-12-20T00:45:06;2.33;;;1.25;;
38725;SDS011;24474;48.906;8.808;2023-12-20T00:47:31;3.38;;;1.33;;
38725;SDS011;24474;48.906;8.808;2023-12-20T00:49:57;1.75;;;1.30;;
38725;SDS011;24474;48.906;8.808;2023-12-20T00:52:23;2.58;;;1.35;;
38725;SDS011;24474;48.906;8.808;2023-12-20T00:54:50;2.20;;;1.55;;
38725;SDS011;24474;48.906;8.808;2023-12-20T00:57:17;2.00;;;1.40;;
38725;SDS011;24474;48.906;8.808;2023-12-20T00:59:42;2.60;;;1.40;;
38725;SDS011;24474;48.906;8.808;2023-12-20T01:02:08;2.58;;;1.50;;
38725;SDS011;24474;48.906;8.808;2023-12-20T01:04:35;2.38;;;1.38;;
38725;SDS011;24474;48.906;8.808;2023-12-20T01:07:01;2.58;;;1.30;;
38725;SDS011;24474;48.906;8.808;2023-12-20T01:09:27;2.50;;;1.38;;
38725;SDS011;24474;48.906;8.808;2023-12-20T01:11:53;1.73;;;1.20;;
38725;SDS011;24474;48.906;8.808;2023-12-20T01:14:19;2.05;;;1.30;;
38725;SDS011;24474;48.906;8.808;2023-12-20T01:16:44;1.70;;;1.17;;
38725;SDS011;24474;48.906;8.808;2023-12-20T01:19:10;1.35;;;0.93;;
38725;SDS011;24474;48.906;8.808;2023-12-20T01:21:36;1.77;;;0.95;;
38725;SDS011;24474;48.906;8.808;2023-12-20T01:24:02;0.88;;;0.70;;
38725;SDS011;24474;48.906;8.808;2023-12-20T01:26:28;0.85;;;0.70;;
38725;SDS011;24474;48.906;8.808;2023-12-20T01:28:53;1.08;;;0.73;;
38725;SDS011;24474;48.906;8.808;2023-12-20T01:31:19;0.63;;;0.60;;
38725;SDS011;24474;48.906;8.808;2023-12-20T01:33:44;1.65;;;0.70;;
38725;SDS011;24474;48.906;8.808;2023-12-20T01:36:10;0.77;;;0.70;;
38725;SDS011;24474;48.906;8.808;2023-12-20T01:38:36;0.98;;;0.70;;
38725;SDS011;24474;48.906;8.808;2023-12-20T01:41:02;1.13;;;0.90;;
38725;SDS011;24474;48.906;8.808;2023-12-20T01:43:28;1.02;;;0.93;;
38725;SDS011;24474;48.906;8.808;2023-12-20T01:45:54;1.50;;;0.80;;
38725;SDS011;24474;48.906;8.808;2023-12-20T01:48:21;1.00;;;0.90;;
38725;SDS011;24474;48.906;8.808;2023-12-20T01:50:48;0.70;;;0.70;;
38725;SDS011;24474;48.906;8.808;2023-12-20T01:53:14;0.65;;;0.60;;
38725;SDS011;24474;48.906;8.808;2023-12-20T01:55:41;0.63;;;0.63;;
38725;SDS011;24474;48.906;8.808;2023-12-20T01:58:07;2.58;;;0.73;;
38725;SDS011;24474;48.906;8.808;2023-12-20T02:00:35;0.50;;;0.50;;
38725;SDS011;24474;48.906;8.808;2023-12-20T02:03:02;0.82;;;0.77;;
38725;SDS011;24474;48.906;8.808;2023-12-20T02:05:29;0.60;;;0.50;;
38725;SDS011;24474;48.906;8.808;2023-12-20T02:07:56;0.50;;;0.50;;
38725;SDS011;24474;48.906;8.808;2023-12-20T02:10:23;0.70;;;0.65;;
38725;SDS011;24474;48.906;8.808;2023-12-20T02:12:49;1.45;;;0.60;;
38725;SDS011;24474;48.906;8.808;2023-12-20T02:15:14;1.67;;;0.80;;
38725;SDS011;24474;48.906;8.808;2023-12-20T02:17:40;0.70;;;0.70;;
38725;SDS011;24474;48.906;8.808;2023-12-20T02:20:06;1.67;;;0.68;;
38725;SDS011;24474;48.906;8.808;2023-12-20T02:22:32;0.80;;;0.65;;
38725;SDS011;24474;48.906;8.808;2023-12-20T02:24:58;0.60;;;0.60;;
38725;SDS011;24474;48.906;8.808;2023-12-20T02:27:23;0.93;;;0.73;;
38725;SDS011;24474;48.906;8.808;2023-12-20T02:29:49;0.90;;;0.80;;
38725;SDS011;24474;48.906;8.808;2023-12-20T02:32:16;1.48;;;0.68;;
38725;SDS011;24474;48.906;8.808;2023-12-20T02:34:42;0.68;;;0.68;;
38725;SDS011;24474;48.906;8.808;2023-12-20T02:37:08;0.85;;;0.70;;
38725;SDS011;24474;48.906;8.808;2023-12-20T02:39:33;1.27;;;0.73;;
38725;SDS011;24474;48.906;8.808;2023-12-20T02:41:59;0.52;;;0.52;;
38725;SDS011;24474;48.906;8.808;2023-12-20T02:44:25;0.98;;;0.70;;
38725;SDS011;24474;48.906;8.808;2023-12-20T02:46:51;0.80;;;0.80;;
38725;SDS011;24474;48.906;8.808;2023-12-20T02:49:16;0.75;;;0.70;;
38725;SDS011;24474;48.906;8.808;2023-12-20T02:51:42;0.57;;;0.57;;
38725;SDS011;24474;48.906;8.808;2023-12-20T02:54:07;0.70;;;0.70;;
38725;SDS011;24474;48.906;8.808;2023-12-20T02:56:33;0.60;;;0.60;;
38725;SDS011;24474;48.906;8.808;2023-12-20T02:58:59;1.40;;;0.60;;
38725;SDS011;24474;48.906;8.808;2023-12-20T03:01:24;0.70;;;0.55;;
38725;SDS011;24474;48.906;8.808;2023-12-20T03:03:51;0.75;;;0.60;;
38725;SDS011;24474;48.906;8.808;2023-12-20T03:06:17;1.25;;;0.70;;
38725;SDS011;24474;48.906;8.808;2023-12-20T03:08:43;1.77;;;0.70;;
38725;SDS011;24474;48.906;8.808;2023-12-20T03:11:10;0.63;;;0.60;;
38725;SDS011;24474;48.906;8.808;2023-12-20T03:13:35;0.85;;;0.68;;
38725;SDS011;24474;48.906;8.808;2023-12-20T03:16:01;0.82;;;0.63;;
38725;SDS011;24474;48.906;8.808;2023-12-20T03:18:32;0.52;;;0.50;;
38725;SDS011;24474;48.906;8.808;2023-12-20T03:20:58;0.73;;;0.70;;
38725;SDS011;24474;48.906;8.808;2023-12-20T03:23:23;0.90;;;0.70;;
38725;SDS011;24474;48.906;8.808;2023-12-20T03:25:49;1.05;;;0.70;;
38725;SDS011;24474;48.906;8.808;2023-12-20T03:28:15;1.00;;;0.70;;
38725;SDS011;24474;48.906;8.808;2023-12-20T03:30:41;0.98;;;0.75;;
38725;SDS011;24474;48.906;8.808;2023-12-20T03:33:09;0.95;;;0.70;;
38725;SDS011;24474;48.906;8.808;2023-12-20T03:35:35;1.15;;;0.70;;
38725;SDS011;24474;48.906;8.808;2023-12-20T03:38:00;0.70;;;0.70;;
38725;SDS011;24474;48.906;8.808;2023-12-20T03:40:26;1.75;;;0.65;;
38725;SDS011;24474;48.906;8.808;2023-12-20T03:42:52;1.38;;;0.63;;
38725;SDS011;24474;48.906;8.808;2023-12-20T03:45:17;1.20;;;0.80;;
38725;SDS011;24474;48.906;8.808;2023-12-20T03:47:43;1.33;;;0.90;;
38725;SDS011;24474;48.906;8.808;2023-12-20T03:50:08;1.23;;;0.82;;
38725;SDS011;24474;48.906;8.808;2023-12-20T03:52:34;0.95;;;0.70;;
38725;SDS011;24474;48.906;8.808;2023-12-20T03:55:00;0.80;;;0.80;;
38725;SDS011;24474;48.906;8.808;2023-12-20T03:57:25;1.15;;;0.75;;
38725;SDS011;24474;48.906;8.808;2023-12-20T03:59:51;1.27;;;0.70;;
38725;SDS011;24474;48.906;8.808;2023-12-20T04:02:16;0.82;;;0.65;;
38725;SDS011;24474;48.906;8.808;2023-12-20T04:04:43;1.73;;;1.00;;
38725;SDS011;24474;48.906;8.808;2023-12-20T04:07:08;1.05;;;0.77;;
38725;SDS011;24474;48.906;8.808;2023-12-20T04:09:34;1.10;;;0.70;;
38725;SDS011;24474;48.906;8.808;2023-12-20T04:11:59;1.13;;;0.70;;
38725;SDS011;24474;48.906;8.808;2023-12-20T04:14:25;1.45;;;0.60;;
38725;SDS011;24474;48.906;8.808;2023-12-20T04:16:51;1.15;;;0.68;;
38725;SDS011;24474;48.906;8.808;2023-12-20T04:19:17;1.17;;;0.80;;
38725;SDS011;24474;48.906;8.808;2023-12-20T04:21:42;1.17;;;0.75;;
38725;SDS011;24474;48.906;8.808;2023-12-20T04:24:08;1.42;;;0.90;;
38725;SDS011;24474;48.906;8.808;2023-12-20T04:26:34;1.17;;;0.77;;
38725;SDS011;24474;48.906;8.808;2023-12-20T04:28:59;0.73;;;0.70;;
38725;SDS011;24474;48.906;8.808;2023-12-20T04:31:25;1.20;;;0.70;;
38725;SDS011;24474;48.906;8.808;2023-12-20T04:33:50;1.02;;;0.65;;
38725;SDS011;24474;48.906;8.808;2023-12-20T04:36:16;0.80;;;0.80;;
38725;SDS011;24474;48.906;8.808;2023-12-20T04:38:41;0.80;;;0.70;;
38725;SDS011;24474;48.906;8.808;2023-12-20T04:41:07;0.77;;;0.70;;
38725;SDS011;24474;48.906;8.808;2023-12-20T04:43:33;1.17;;;1.05;;
38725;SDS011;24474;48.906;8.808;2023-12-20T04:45:58;1.88;;;0.90;;
38725;SDS011;24474;48.906;8.808;2023-12-20T04:48:24;1.15;;;0.95;;
38725;SDS011;24474;48.906;8.808;2023-12-20T04:50:50;1.23;;;0.80;;
38725;SDS011;24474;48.906;8.808;2023-12-20T04:53:15;1.10;;;1.00;;
38725;SDS011;24474;48.906;8.808;2023-12-20T04:55:41;2.97;;;1.67;;
38725;SDS011;24474;48.906;8.808;2023-12-20T04:58:07;2.95;;;1.70;;
38725;SDS011;24474;48.906;8.808;2023-12-20T05:00:32;3.97;;;2.40;;
38725;SDS011;24474;48.906;8.808;2023-12-20T05:02:58;2.58;;;1.83;;
38725;SDS011;24474;48.906;8.808;2023-12-20T05:05:23;3.05;;;1.80;;
38725;SDS011;24474;48.906;8.808;2023-12-20T05:07:49;4.60;;;3.08;;
38725;SDS011;24474;48.906;8.808;2023-12-20T05:10:15;3.55;;;2.38;;
38725;SDS011;24474;48.906;8.808;2023-12-20T05:12:41;2.30;;;1.85;;
38725;SDS011;24474;48.906;8.808;2023-12-20T05:15:07;1.73;;;1.48;;
38725;SDS011;24474;48.906;8.808;2023-12-20T05:17:33;1.80;;;1.50;;
38725;SDS011;24474;48.906;8.808;2023-12-20T05:19:59;2.30;;;1.70;;
38725;SDS011;24474;48.906;8.808;2023-12-20T05:22:25;2.97;;;1.70;;
38725;SDS011;24474;48.906;8.808;2023-12-20T05:24:52;3.03;;;1.83;;
38725;SDS011;24474;48.906;8.808;2023-12-20T05:27:18;4.50;;;2.13;;
38725;SDS011;24474;48.906;8.808;2023-12-20T05:29:43;3.50;;;2.20;;
38725;SDS011;24474;48.906;8.808;2023-12-20T05:32:09;3.15;;;2.15;;
38725;SDS011;24474;48.906;8.808;2023-12-20T05:34:35;2.92;;;2.20;;
38725;SDS011;24474;48.906;8.808;2023-12-20T05:37:01;3.05;;;2.20;;
38725;SDS011;24474;48.906;8.808;2023-12-20T05:39:27;3.63;;;2.00;;
38725;SDS011;24474;48.906;8.808;2023-12-20T05:41:53;2.22;;;1.70;;
38725;SDS011;24474;48.906;8.808;2023-12-20T05:44:19;2.00;;;1.77;;
38725;SDS011;24474;48.906;8.808;2023-12-20T05:46:44;2.67;;;2.10;;
38725;SDS011;24474;48.906;8.808;2023-12-20T05:49:10;5.45;;;2.50;;
38725;SDS011;24474;48.906;8.808;2023-12-20T05:51:35;3.08;;;2.38;;
38725;SDS011;24474;48.906;8.808;2023-12-20T05:54:01;3.22;;;2.42;;
38725;SDS011;24474;48.906;8.808;2023-12-20T05:56:27;2.78;;;2.20;;
38725;SDS011;24474;48.906;8.808;2023-12-20T05:58:52;4.80;;;2.50;;
38725;SDS011;24474;48.906;8.808;2023-12-20T06:01:18;3.45;;;2.42;;
38725;SDS011;24474;48.906;8.808;2023-12-20T06:03:44;2.65;;;2.20;;
38725;SDS011;24474;48.906;8.808;2023-12-20T06:06:10;3.03;;;2.28;;
38725;SDS011;24474;48.906;8.808;2023-12-20T06:08:37;4.30;;;2.58;;
38725;SDS011;24474;48.906;8.808;2023-12-20T06:11:03;3.50;;;2.45;;
38725;SDS011;24474;48.906;8.808;2023-12-20T06:13:30;3.25;;;2.55;;
38725;SDS011;24474;48.906;8.808;2023-12-20T06:15:56;3.78;;;2.67;;
38725;SDS011;24474;48.906;8.808;2023-12-20T06:18:22;3.38;;;2.60;;
38725;SDS011;24474;48.906;8.808;2023-12-20T06:20:47;3.17;;;2.30;;
38725;SDS011;24474;48.906;8.808;2023-12-20T06:23:13;2.92;;;2.47;;
38725;SDS011;24474;48.906;8.808;2023-12-20T06:25:39;4.18;;;2.40;;
38725;SDS011;24474;48.906;8.808;2023-12-20T06:28:04;3.42;;;2.58;;
38725;SDS011;24474;48.906;8.808;2023-12-20T06:30:30;3.58;;;2.70;;
38725;SDS011;24474;48.906;8.808;2023-12-20T06:32:57;4.10;;;2.72;;
38725;SDS011;24474;48.906;8.808;2023-12-20T06:35:23;3.63;;;2.80;;
38725;SDS011;24474;48.906;8.808;2023-12-20T06:37:49;3.28;;;2.75;;
38725;SDS011;24474;48.906;8.808;2023-12-20T06:40:16;5.35;;;2.92;;
38725;SDS011;24474;48.906;8.808;2023-12-20T06:42:42;4.32;;;3.08;;
38725;SDS011;24474;48.906;8.808;2023-12-20T06:45:09;4.05;;;2.92;;
38725;SDS011;24474;48.906;8.808;2023-12-20T06:47:35;3.95;;;3.30;;
38725;SDS011;24474;48.906;8.808;2023-12-20T06:50:00;5.10;;;3.60;;
38725;SDS011;24474;48.906;8.808;2023-12-20T06:52:26;4.20;;;3.25;;
38725;SDS011;24474;48.906;8.808;2023-12-20T06:54:52;5.03;;;3.00;;
38725;SDS011;24474;48.906;8.808;2023-12-20T06:57:18;4.60;;;3.35;;
38725;SDS011;24474;48.906;8.808;2023-12-20T06:59:47;3.40;;;2.67;;
38725;SDS011;24474;48.906;8.808;2023-12-20T07:02:12;3.70;;;2.83;;
38725;SDS011;24474;48.906;8.808;2023-12-20T07:04:41;4.15;;;3.20;;
38725;SDS011;24474;48.906;8.808;2023-12-20T07:07:08;4.70;;;2.85;;
38725;SDS011;24474;48.906;8.808;2023-12-20T07:09:34;3.28;;;2.67;;
38725;SDS011;24474;48.906;8.808;2023-12-20T07:12:00;3.42;;;2.75;;
38725;SDS011;24474;48.906;8.808;2023-12-20T07:14:26;5.25;;;3.28;;
38725;SDS011;24474;48.906;8.808;2023-12-20T07:16:51;3.53;;;2.85;;
38725;SDS011;24474;48.906;8.808;2023-12-20T07:19:17;3.45;;;2.70;;
38725;SDS011;24474;48.906;8.808;2023-12-20T07:21:42;4.00;;;2.67;;
38725;SDS011;24474;48.906;8.808;2023-12-20T07:24:08;3.55;;;2.75;;
38725;SDS011;24474;48.906;8.808;2023-12-20T07:26:34;3.22;;;2.80;;
38725;SDS011;24474;48.906;8.808;2023-12-20T07:29:00;4.32;;;2.90;;
38725;SDS011;24474;48.906;8.808;2023-12-20T07:31:26;3.70;;;3.17;;
38725;SDS011;24474;48.906;8.808;2023-12-20T07:33:51;6.70;;;3.35;;
38725;SDS011;24474;48.906;8.808;2023-12-20T07:36:19;3.75;;;2.85;;
38725;SDS011;24474;48.906;8.808;2023-12-20T07:38:46;4.53;;;3.53;;
38725;SDS011;24474;48.906;8.808;2023-12-20T07:41:12;4.10;;;2.88;;
38725;SDS011;24474;48.906;8.808;2023-12-20T07:43:38;3.67;;;2.50;;
38725;SDS011;24474;48.906;8.808;2023-12-20T07:46:07;5.70;;;2.95;;
38725;SDS011;24474;48.906;8.808;2023-12-20T07:48:37;4.00;;;2.80;;
38725;SDS011;24474;48.906;8.808;2023-12-20T07:51:03;4.55;;;3.15;;
38725;SDS011;24474;48.906;8.808;2023-12-20T07:53:31;6.43;;;3.65;;
38725;SDS011;24474;48.906;8.808;2023-12-20T07:55:58;5.22;;;3.15;;
38725;SDS011;24474;48.906;8.808;2023-12-20T07:58:23;4.38;;;2.90;;
38725;SDS011;24474;48.906;8.808;2023-12-20T08:00:49;5.85;;;3.40;;
38725;SDS011;24474;48.906;8.808;2023-12-20T08:03:15;5.13;;;3.20;;
38725;SDS011;24474;48.906;8.808;2023-12-20T08:05:41;3.95;;;2.97;;
38725;SDS011;24474;48.906;8.808;2023-12-20T08:08:06;5.38;;;3.17;;
38725;SDS011;24474;48.906;8.808;2023-12-20T08:10:32;5.57;;;3.30;;
38725;SDS011;24474;48.906;8.808;2023-12-20T08:12:58;4.45;;;3.17;;
38725;SDS011;24474;48.906;8.808;2023-12-20T08:15:23;4.75;;;3.25;;
38725;SDS011;24474;48.906;8.808;2023-12-20T08:17:49;6.03;;;3.75;;
38725;SDS011;24474;48.906;8.808;2023-12-20T08:20:16;6.72;;;3.92;;
38725;SDS011;24474;48.906;8.808;2023-12-20T08:22:42;6.28;;;3.78;;
38725;SDS011;24474;48.906;8.808;2023-12-20T08:25:08;6.25;;;4.07;;
38725;SDS011;24474;48.906;8.808;2023-12-20T08:27:34;7.07;;;3.95;;
38725;SDS011;24474;48.906;8.808;2023-12-20T08:30:06;5.93;;;3.72;;
38725;SDS011;24474;48.906;8.808;2023-12-20T08:32:34;5.47;;;3.45;;
38725;SDS011;24474;48.906;8.808;2023-12-20T08:34:59;5.30;;;3.50;;
38725;SDS011;24474;48.906;8.808;2023-12-20T08:37:25;6.18;;;3.22;;
38725;SDS011;24474;48.906;8.808;2023-12-20T08:39:51;4.50;;;3.15;;
38725;SDS011;24474;48.906;8.808;2023-12-20T08:42:16;6.70;;;3.50;;
38725;SDS011;24474;48.906;8.808;2023-12-20T08:44:46;5.82;;;3.55;;
38725;SDS011;24474;48.906;8.808;2023-12-20T08:47:15;4.68;;;3.30;;
38725;SDS011;24474;48.906;8.808;2023-12-20T08:49:41;4.82;;;3.15;;
38725;SDS011;24474;48.906;8.808;2023-12-20T08:52:06;5.65;;;3.30;;
38725;SDS011;24474;48.906;8.808;2023-12-20T08:54:32;6.80;;;3.60;;
38725;SDS011;24474;48.906;8.808;2023-12-20T08:56:57;6.30;;;2.92;;
38725;SDS011;24474;48.906;8.808;2023-12-20T08:59:27;6.55;;;2.38;;
38725;SDS011;24474;48.906;8.808;2023-12-20T09:01:52;4.72;;;2.20;;
38725;SDS011;24474;48.906;8.808;2023-12-20T09:04:19;3.97;;;2.28;;
38725;SDS011;24474;48.906;8.808;2023-12-20T09:06:45;8.77;;;2.58;;
38725;SDS011;24474;48.906;8.808;2023-12-20T09:09:11;4.38;;;2.17;;
38725;SDS011;24474;48.906;8.808;2023-12-20T09:11:38;3.10;;;1.77;;
38725;SDS011;24474;48.906;8.808;2023-12-20T09:14:04;5.10;;;2.17;;
38725;SDS011;24474;48.906;8.808;2023-12-20T09:16:30;6.57;;;2.10;;
38725;SDS011;24474;48.906;8.808;2023-12-20T09:18:57;4.70;;;1.88;;
38725;SDS011;24474;48.906;8.808;2023-12-20T09:21:22;6.07;;;1.98;;
38725;SDS011;24474;48.906;8.808;2023-12-20T09:23:48;3.90;;;1.90;;
38725;SDS011;24474;48.906;8.808;2023-12-20T09:26:15;4.55;;;1.90;;
38725;SDS011;24474;48.906;8.808;2023-12-20T09:28:42;4.63;;;1.77;;
38725;SDS011;24474;48.906;8.808;2023-12-20T09:31:08;8.15;;;2.05;;
38725;SDS011;24474;48.906;8.808;2023-12-20T09:33:34;5.55;;;1.90;;
38725;SDS011;24474;48.906;8.808;2023-12-20T09:36:00;4.10;;;1.80;;
38725;SDS011;24474;48.906;8.808;2023-12-20T09:38:28;5.18;;;1.95;;
38725;SDS011;24474;48.906;8.808;2023-12-20T09:40:55;5.55;;;1.95;;
38725;SDS011;24474;48.906;8.808;2023-12-20T09:43:24;5.38;;;1.90;;
38725;SDS011;24474;48.906;8.808;2023-12-20T09:45:55;5.82;;;2.20;;
38725;SDS011;24474;48.906;8.808;2023-12-20T09:48:25;3.97;;;1.92;;
38725;SDS011;24474;48.906;8.808;2023-12-20T09:50:52;5.10;;;1.55;;
38725;SDS011;24474;48.906;8.808;2023-12-20T09:53:18;6.30;;;1.88;;
38725;SDS011;24474;48.906;8.808;2023-12-20T09:55:46;4.75;;;1.60;;
38725;SDS011;24474;48.906;8.808;2023-12-20T09:58:11;5.97;;;1.85;;
38725;SDS011;24474;48.906;8.808;2023-12-20T10:00:37;7.20;;;1.80;;
38725;SDS011;24474;48.906;8.808;2023-12-20T10:03:03;6.97;;;2.00;;
38725;SDS011;24474;48.906;8.808;2023-12-20T10:05:31;7.53;;;2.10;;
38725;SDS011;24474;48.906;8.808;2023-12-20T10:07:58;5.65;;;2.05;;
38725;SDS011;24474;48.906;8.808;2023-12-20T10:10:25;7.45;;;1.90;;
38725;SDS011;24474;48.906;8.808;2023-12-20T10:15:46;9.10;;;1.92;;
38725;SDS011;24474;48.906;8.808;2023-12-20T10:18:12;4.63;;;1.67;;
38725;SDS011;24474;48.906;8.808;2023-12-20T10:20:37;7.45;;;2.47;;
38725;SDS011;24474;48.906;8.808;2023-12-20T10:23:06;9.43;;;2.55;;
38725;SDS011;24474;48.906;8.808;2023-12-20T10:25:31;4.82;;;1.63;;
38725;SDS011;24474;48.906;8.808;2023-12-20T10:28:11;5.90;;;2.00;;
38725;SDS011;24474;48.906;8.808;2023-12-20T10:30:38;5.75;;;2.33;;
38725;SDS011;24474;48.906;8.808;2023-12-20T10:33:07;7.05;;;2.20;;
38725;SDS011;24474;48.906;8.808;2023-12-20T10:35:34;6.30;;;1.75;;
38725;SDS011;24474;48.906;8.808;2023-12-20T10:38:03;7.38;;;2.15;;
38725;SDS011;24474;48.906;8.808;2023-12-20T10:40:30;6.32;;;2.30;;
38725;SDS011;24474;48.906;8.808;2023-12-20T10:42:56;8.05;;;2.00;;
38725;SDS011;24474;48.906;8.808;2023-12-20T10:45:23;7.05;;;2.20;;
38725;SDS011;24474;48.906;8.808;2023-12-20T10:47:49;5.55;;;2.17;;
38725;SDS011;24474;48.906;8.808;2023-12-20T10:50:15;5.82;;;2.00;;
38725;SDS011;24474;48.906;8.808;2023-12-20T10:52:41;5.95;;;1.85;;
38725;SDS011;24474;48.906;8.808;2023-12-20T10:55:10;5.30;;;1.88;;
38725;SDS011;24474;48.906;8.808;2023-12-20T10:57:37;9.18;;;2.20;;
38725;SDS011;24474;48.906;8.808;2023-12-20T11:00:04;7.07;;;2.00;;
38725;SDS011;24474;48.906;8.808;2023-12-20T11:02:36;6.10;;;1.92;;
38725;SDS011;24474;48.906;8.808;2023-12-20T11:08:20;4.38;;;1.90;;
38725;SDS011;24474;48.906;8.808;2023-12-20T11:11:05;6.43;;;2.00;;
38725;SDS011;24474;48.906;8.808;2023-12-20T11:13:40;5.97;;;2.17;;
38725;SDS011;24474;48.906;8.808;2023-12-20T11:16:13;8.38;;;2.30;;
38725;SDS011;24474;48.906;8.808;2023-12-20T11:18:42;5.75;;;2.05;;
38725;SDS011;24474;48.906;8.808;2023-12-20T11:21:10;6.20;;;2.55;;
38725;SDS011;24474;48.906;8.808;2023-12-20T11:23:36;7.43;;;2.30;;
38725;SDS011;24474;48.906;8.808;2023-12-20T11:26:02;6.75;;;2.33;;
38725;SDS011;24474;48.906;8.808;2023-12-20T11:28:28;7.43;;;2.20;;
38725;SDS011;24474;48.906;8.808;2023-12-20T11:30:57;6.82;;;2.30;;
38725;SDS011;24474;48.906;8.808;2023-12-20T11:33:32;6.35;;;2.03;;
38725;SDS011;24474;48.906;8.808;2023-12-20T11:36:01;6.25;;;2.00;;
38725;SDS011;24474;48.906;8.808;2023-12-20T11:38:32;6.75;;;2.40;;
38725;SDS011;24474;48.906;8.808;2023-12-20T11:41:06;9.05;;;2.40;;
38725;SDS011;24474;48.906;8.808;2023-12-20T11:43:34;9.18;;;2.40;;
38725;SDS011;24474;48.906;8.808;2023-12-20T11:46:08;6.72;;;2.10;;
38725;SDS011;24474;48.906;8.808;2023-12-20T11:48:35;5.68;;;1.90;;
38725;SDS011;24474;48.906;8.808;2023-12-20T11:51:02;6.53;;;1.90;;
38725;SDS011;24474;48.906;8.808;2023-12-20T11:53:34;7.70;;;2.15;;
38725;SDS011;24474;48.906;8.808;2023-12-20T11:56:00;6.55;;;1.85;;
38725;SDS011;24474;48.906;8.808;2023-12-20T11:58:27;8.32;;;2.20;;
38725;SDS011;24474;48.906;8.808;2023-12-20T12:00:53;5.28;;;1.73;;
38725;SDS011;24474;48.906;8.808;2023-12-20T12:03:20;6.22;;;1.90;;
38725;SDS011;24474;48.906;8.808;2023-12-20T12:05:47;6.20;;;1.75;;
38725;SDS011;24474;48.906;8.808;2023-12-20T12:08:13;6.72;;;1.85;;
38725;SDS011;24474;48.906;8.808;2023-12-20T12:10:39;7.55;;;1.95;;
38725;SDS011;24474;48.906;8.808;2023-12-20T12:13:04;6.18;;;1.80;;
38725;SDS011;24474;48.906;8.808;2023-12-20T12:15:30;6.45;;;1.98;;
38725;SDS011;24474;48.906;8.808;2023-12-20T12:17:56;8.15;;;1.73;;
38725;SDS011;24474;48.906;8.808;2023-12-20T12:20:22;4.68;;;1.65;;
38725;SDS011;24474;48.906;8.808;2023-12-20T12:23:02;7.68;;;1.80;;
38725;SDS011;24474;48.906;8.808;2023-12-20T12:25:29;7.97;;;1.83;;
38725;SDS011;24474;48.906;8.808;2023-12-20T12:27:56;9.73;;;3.13;;
38725;SDS011;24474;48.906;8.808;2023-12-20T12:30:28;6.40;;;1.83;;
38725;SDS011;24474;48.906;8.808;2023-12-20T12:32:55;6.53;;;1.90;;
38725;SDS011;24474;48.906;8.808;2023-12-20T12:35:21;5.85;;;1.75;;
38725;SDS011;24474;48.906;8.808;2023-12-20T12:37:47;6.68;;;1.88;;
38725;SDS011;24474;48.906;8.808;2023-12-20T12:40:13;7.70;;;1.77;;
38725;SDS011;24474;48.906;8.808;2023-12-20T12:42:43;5.70;;;1.60;;
38725;SDS011;24474;48.906;8.808;2023-12-20T12:45:10;4.38;;;1.50;;
38725;SDS011;24474;48.906;8.808;2023-12-20T12:47:39;5.63;;;1.73;;
38725;SDS011;24474;48.906;8.808;2023-12-20T12:50:05;5.35;;;1.58;;
38725;SDS011;24474;48.906;8.808;2023-12-20T12:52:31;10.40;;;1.88;;
38725;SDS011;24474;48.906;8.808;2023-12-20T12:54:57;5.18;;;1.35;;
38725;SDS011;24474;48.906;8.808;2023-12-20T12:57:22;3.80;;;1.50;;
38725;SDS011;24474;48.906;8.808;2023-12-20T12:59:49;6.55;;;1.83;;
38725;SDS011;24474;48.906;8.808;2023-12-20T13:02:14;4.93;;;1.75;;
38725;SDS011;24474;48.906;8.808;2023-12-20T13:04:41;4.43;;;1.35;;
38725;SDS011;24474;48.906;8.808;2023-12-20T13:07:07;4.40;;;1.70;;
38725;SDS011;24474;48.906;8.808;2023-12-20T13:09:35;8.65;;;1.80;;
38725;SDS011;24474;48.906;8.808;2023-12-20T13:12:02;5.07;;;1.30;;
38725;SDS011;24474;48.906;8.808;2023-12-20T13:14:30;6.82;;;1.92;;
38725;SDS011;24474;48.906;8.808;2023-12-20T13:16:58;3.50;;;1.60;;
38725;SDS011;24474;48.906;8.808;2023-12-20T13:19:23;5.85;;;1.77;;
38725;SDS011;24474;48.906;8.808;2023-12-20T13:21:49;4.30;;;1.58;;
38725;SDS011;24474;48.906;8.808;2023-12-20T13:24:15;9.82;;;1.95;;
38725;SDS011;24474;48.906;8.808;2023-12-20T13:26:40;6.38;;;2.05;;
38725;SDS011;24474;48.906;8.808;2023-12-20T13:29:08;5.93;;;1.92;;
38725;SDS011;24474;48.906;8.808;2023-12-20T13:31:34;6.47;;;2.17;;
38725;SDS011;24474;48.906;8.808;2023-12-20T13:34:01;8.15;;;1.73;;
38725;SDS011;24474;48.906;8.808;2023-12-20T13:36:27;8.50;;;3.00;;
38725;SDS011;24474;48.906;8.808;2023-12-20T13:38:52;9.65;;;1.80;;
38725;SDS011;24474;48.906;8.808;2023-12-20T13:41:19;16.25;;;4.20;;
38725;SDS011;24474;48.906;8.808;2023-12-20T13:43:45;7.05;;;2.33;;
38725;SDS011;24474;48.906;8.808;2023-12-20T13:46:10;6.88;;;1.90;;
38725;SDS011;24474;48.906;8.808;2023-12-20T13:48:36;5.43;;;1.95;;
38725;SDS011;24474;48.906;8.808;2023-12-20T13:51:02;7.75;;;1.88;;
38725;SDS011;24474;48.906;8.808;2023-12-20T13:53:28;6.65;;;2.22;;
38725;SDS011;24474;48.906;8.808;2023-12-20T13:55:53;6.95;;;2.72;;
38725;SDS011;24474;48.906;8.808;2023-12-20T13:58:19;6.65;;;2.20;;
38725;SDS011;24474;48.906;8.808;2023-12-20T14:00:48;8.75;;;2.05;;
38725;SDS011;24474;48.906;8.808;2023-12-20T14:03:14;7.13;;;1.98;;
38725;SDS011;24474;48.906;8.808;2023-12-20T14:05:39;9.05;;;1.90;;
38725;SDS011;24474;48.906;8.808;2023-12-20T14:08:05;7.30;;;2.33;;
38725;SDS011;24474;48.906;8.808;2023-12-20T14:10:31;8.15;;;2.47;;
38725;SDS011;24474;48.906;8.808;2023-12-20T14:12:56;11.38;;;2.55;;
38725;SDS011;24474;48.906;8.808;2023-12-20T14:15:22;8.15;;;3.35;;
38725;SDS011;24474;48.906;8.808;2023-12-20T14:17:50;12.23;;;5.70;;
38725;SDS011;24474;48.906;8.808;2023-12-20T14:20:16;8.25;;;2.60;;
38725;SDS011;24474;48.906;8.808;2023-12-20T14:22:43;6.97;;;2.78;;
38725;SDS011;24474;48.906;8.808;2023-12-20T14:25:10;11.55;;;2.70;;
38725;SDS011;24474;48.906;8.808;2023-12-20T14:27:37;7.07;;;2.20;;
38725;SDS011;24474;48.906;8.808;2023-12-20T14:30:03;5.25;;;2.17;;
38725;SDS011;24474;48.906;8.808;2023-12-20T14:32:29;7.90;;;2.20;;
38725;SDS011;24474;48.906;8.808;2023-12-20T14:34:54;6.38;;;2.00;;
38725;SDS011;24474;48.906;8.808;2023-12-20T14:37:20;8.02;;;2.10;;
38725;SDS011;24474;48.906;8.808;2023-12-20T14:39:45;5.43;;;1.75;;
38725;SDS011;24474;48.906;8.808;2023-12-20T14:42:11;6.18;;;2.00;;
38725;SDS011;24474;48.906;8.808;2023-12-20T14:44:42;6.78;;;1.90;;
38725;SDS011;24474;48.906;8.808;2023-12-20T14:47:08;7.22;;;1.95;;
38725;SDS011;24474;48.906;8.808;2023-12-20T14:49:34;8.20;;;2.22;;